createdAt,value
2023-02-23T00:00:10.810Z,15.00
2023-02-23T00:01:10.779Z,16.10
2023-02-23T00:02:10.776Z,16.90
2023-02-23T00:03:10.970Z,15.80
2023-02-23T00:04:10.751Z,16.00
2023-02-23T00:05:10.753Z,15.60
2023-02-23T00:06:10.746Z,17.40
2023-02-23T00:07:10.722Z,16.80
2023-02-23T00:08:10.711Z,17.40
2023-02-23T00:09:10.727Z,17.30
2023-02-23T00:10:10.682Z,17.70
2023-02-23T00:11:10.683Z,17.20
2023-02-23T00:12:10.648Z,17.50
2023-02-23T00:13:10.653Z,18.00
2023-02-23T00:14:10.639Z,17.50
2023-02-23T00:15:10.618Z,15.60
2023-02-23T00:16:10.659Z,15.80
2023-02-23T00:17:10.626Z,16.20
2023-02-23T00:18:10.594Z,15.90
2023-02-23T00:19:10.723Z,15.80
2023-02-23T00:20:10.584Z,15.10
2023-02-23T00:21:10.551Z,15.50
2023-02-23T00:22:10.590Z,15.90
2023-02-23T00:23:10.546Z,16.60
2023-02-23T00:24:10.537Z,15.60
2023-02-23T00:25:10.550Z,14.90
2023-02-23T00:26:10.493Z,14.70
2023-02-23T00:27:10.498Z,15.00
2023-02-23T00:28:10.490Z,14.40
2023-02-23T00:29:10.481Z,14.80
2023-02-23T00:30:10.470Z,14.80
2023-02-23T00:31:10.542Z,14.60
2023-02-23T00:32:10.537Z,15.60
2023-02-23T00:33:10.474Z,15.70
2023-02-23T00:34:10.442Z,16.10
2023-02-23T00:35:10.418Z,16.40
2023-02-23T00:36:10.403Z,14.80
2023-02-23T00:37:10.401Z,14.50
2023-02-23T00:38:10.366Z,14.40
2023-02-23T00:39:10.404Z,14.50
2023-02-23T00:40:10.392Z,15.80
2023-02-23T00:41:11.661Z,15.10
2023-02-23T00:42:10.346Z,15.80
2023-02-23T00:43:10.338Z,15.60
2023-02-23T00:44:10.313Z,16.40
2023-02-23T00:45:10.314Z,16.20
2023-02-23T00:46:10.316Z,16.80
2023-02-23T00:47:10.289Z,16.20
2023-02-23T00:48:10.267Z,16.70
2023-02-23T00:49:10.283Z,16.60
2023-02-23T00:50:10.234Z,16.60
2023-02-23T00:51:10.234Z,16.60
2023-02-23T00:52:10.243Z,16.90
2023-02-23T00:53:11.568Z,16.30
2023-02-23T00:54:10.210Z,16.20
2023-02-23T00:55:10.220Z,16.10
2023-02-23T00:56:10.186Z,15.90
2023-02-23T00:57:10.178Z,16.40
2023-02-23T00:58:10.163Z,16.20
2023-02-23T00:59:10.179Z,15.00
2023-02-23T01:00:10.136Z,15.00
2023-02-23T01:01:10.226Z,13.70
2023-02-23T01:02:10.141Z,13.90
2023-02-23T01:03:10.109Z,13.80
2023-02-23T01:04:10.116Z,13.40
2023-02-23T01:05:10.084Z,13.40
2023-02-23T01:06:10.063Z,13.80
2023-02-23T01:07:10.079Z,13.50
2023-02-23T01:08:10.052Z,14.40
2023-02-23T01:09:10.047Z,14.60
2023-02-23T01:10:10.040Z,14.20
2023-02-23T01:11:10.025Z,15.40
2023-02-23T01:12:10.000Z,14.30
2023-02-23T01:13:10.012Z,14.00
2023-02-23T01:14:09.989Z,15.70
2023-02-23T01:15:09.968Z,18.00
2023-02-23T01:16:09.955Z,19.40
2023-02-23T01:17:09.944Z,18.50
2023-02-23T01:18:09.930Z,17.80
2023-02-23T01:19:09.939Z,19.40
2023-02-23T01:20:09.903Z,20.00
2023-02-23T01:21:09.907Z,21.20
2023-02-23T01:22:09.895Z,21.90
2023-02-23T01:23:09.872Z,18.60
2023-02-23T01:24:09.885Z,18.40
2023-02-23T01:25:09.887Z,18.50
2023-02-23T01:26:09.848Z,18.20
2023-02-23T01:27:09.861Z,18.50
2023-02-23T01:28:09.821Z,17.80
2023-02-23T01:29:09.848Z,17.50
2023-02-23T01:30:09.784Z,17.40
2023-02-23T01:31:09.970Z,17.90
2023-02-23T01:32:09.910Z,18.70
2023-02-23T01:33:09.769Z,18.30
2023-02-23T01:34:09.757Z,17.70
2023-02-23T01:35:09.762Z,18.30
2023-02-23T01:36:09.730Z,19.50
2023-02-23T01:37:09.734Z,19.30
2023-02-23T01:38:09.719Z,19.80
2023-02-23T01:39:09.703Z,18.40
2023-02-23T01:40:09.696Z,18.80
2023-02-23T01:41:09.709Z,18.00
2023-02-23T01:42:09.660Z,18.80
2023-02-23T01:43:09.662Z,18.60
2023-02-23T01:44:09.667Z,18.30
2023-02-23T01:45:09.645Z,18.50
2023-02-23T01:46:09.670Z,18.10
2023-02-23T01:47:09.620Z,17.80
2023-02-23T01:48:09.606Z,18.40
2023-02-23T01:49:09.617Z,19.00
2023-02-23T01:50:09.577Z,17.70
2023-02-23T01:51:09.573Z,18.90
2023-02-23T01:52:09.576Z,17.80
2023-02-23T01:53:09.578Z,18.70
2023-02-23T01:54:09.551Z,21.70
2023-02-23T01:55:09.536Z,21.70
2023-02-23T01:56:09.513Z,21.20
2023-02-23T01:57:09.505Z,21.70
2023-02-23T01:58:09.510Z,21.70
2023-02-23T01:59:09.522Z,20.10
2023-02-23T02:00:09.486Z,21.70
2023-02-23T02:01:09.525Z,21.00
2023-02-23T02:02:09.455Z,20.00
2023-02-23T02:03:09.450Z,20.40
2023-02-23T02:04:09.448Z,19.50
2023-02-23T02:05:09.454Z,22.00
2023-02-23T02:06:09.400Z,20.80
2023-02-23T02:07:09.401Z,21.30
2023-02-23T02:08:09.414Z,19.10
2023-02-23T02:09:09.422Z,20.70
2023-02-23T02:10:09.373Z,19.10
2023-02-23T02:11:09.362Z,19.50
2023-02-23T02:12:09.354Z,18.50
2023-02-23T02:13:09.349Z,18.60
2023-02-23T02:14:09.334Z,18.40
2023-02-23T02:15:09.346Z,19.70
2023-02-23T02:16:09.326Z,18.70
2023-02-23T02:17:09.291Z,18.00
2023-02-23T02:18:09.594Z,18.60
2023-02-23T02:19:09.280Z,18.90
2023-02-23T02:20:09.269Z,18.10
2023-02-23T02:21:09.256Z,19.30
2023-02-23T02:22:09.240Z,19.10
2023-02-23T02:23:09.234Z,18.50
2023-02-23T02:24:09.239Z,19.50
2023-02-23T02:25:09.298Z,20.20
2023-02-23T02:26:09.225Z,20.80
2023-02-23T02:27:09.209Z,20.70
2023-02-23T02:28:09.181Z,21.40
2023-02-23T02:29:09.193Z,21.30
2023-02-23T02:30:09.157Z,20.30
2023-02-23T02:31:09.180Z,20.10
2023-02-23T02:32:09.160Z,20.10
2023-02-23T02:33:09.154Z,20.50
2023-02-23T02:34:09.150Z,20.40
2023-02-23T02:35:09.140Z,20.80
2023-02-23T02:36:09.133Z,19.70
2023-02-23T02:37:09.097Z,20.70
2023-02-23T02:38:09.072Z,20.50
2023-02-23T02:39:09.080Z,20.20
2023-02-23T02:40:09.056Z,20.40
2023-02-23T02:41:09.046Z,20.20
2023-02-23T02:42:09.037Z,20.80
2023-02-23T02:43:09.017Z,21.60
2023-02-23T02:44:09.032Z,22.10
2023-02-23T02:45:09.004Z,22.40
2023-02-23T02:46:09.003Z,22.10
2023-02-23T02:47:08.993Z,20.60
2023-02-23T02:48:08.965Z,20.60
2023-02-23T02:49:08.962Z,20.90
2023-02-23T02:50:08.968Z,21.30
2023-02-23T02:51:08.946Z,21.10
2023-02-23T02:52:08.921Z,21.40
2023-02-23T02:53:08.910Z,21.00
2023-02-23T02:54:08.910Z,22.00
2023-02-23T02:55:08.906Z,21.50
2023-02-23T02:56:08.872Z,21.60
2023-02-23T02:57:08.877Z,21.60
2023-02-23T02:58:08.857Z,21.90
2023-02-23T02:59:08.862Z,23.00
2023-02-23T03:00:08.848Z,24.50
2023-02-23T03:01:08.915Z,24.70
2023-02-23T03:02:08.817Z,24.40
2023-02-23T03:03:08.832Z,26.20
2023-02-23T03:04:08.818Z,25.80
2023-02-23T03:05:08.838Z,25.50
2023-02-23T03:06:08.776Z,26.50
2023-02-23T03:07:08.792Z,26.50
2023-02-23T03:08:08.768Z,25.80
2023-02-23T03:09:08.753Z,26.90
2023-02-23T03:10:08.746Z,27.70
2023-02-23T03:11:08.722Z,25.90
2023-02-23T03:12:08.702Z,26.20
2023-02-23T03:13:08.732Z,25.30
2023-02-23T03:14:08.724Z,24.50
2023-02-23T03:15:08.695Z,25.20
2023-02-23T03:16:08.709Z,24.90
2023-02-23T03:17:08.656Z,25.70
2023-02-23T03:18:08.654Z,26.60
2023-02-23T03:19:08.645Z,27.10
2023-02-23T03:20:08.618Z,26.40
2023-02-23T03:21:08.632Z,26.40
2023-02-23T03:22:08.603Z,27.10
2023-02-23T03:23:08.591Z,27.50
2023-02-23T03:24:08.585Z,25.70
2023-02-23T03:25:08.592Z,24.60
2023-02-23T03:26:08.575Z,23.70
2023-02-23T03:27:08.545Z,23.70
2023-02-23T03:28:08.538Z,24.80
2023-02-23T03:29:08.542Z,24.90
2023-02-23T03:30:08.519Z,24.50
2023-02-23T03:31:08.528Z,24.00
2023-02-23T03:32:08.627Z,24.50
2023-02-23T03:33:08.473Z,25.00
2023-02-23T03:34:08.482Z,24.10
2023-02-23T03:35:08.478Z,24.50
2023-02-23T03:36:08.467Z,25.20
2023-02-23T03:37:08.451Z,25.30
2023-02-23T03:38:08.423Z,26.50
2023-02-23T03:39:08.443Z,29.20
2023-02-23T03:40:08.410Z,28.60
2023-02-23T03:41:08.391Z,30.20
2023-02-23T03:42:08.397Z,33.10
2023-02-23T03:43:08.370Z,34.00
2023-02-23T03:44:08.375Z,34.60
2023-02-23T03:45:08.364Z,35.10
2023-02-23T03:46:08.345Z,39.50
2023-02-23T03:47:08.323Z,45.30
2023-02-23T03:48:08.320Z,47.50
2023-02-23T03:49:08.313Z,45.10
2023-02-23T03:50:08.292Z,44.00
2023-02-23T03:51:08.279Z,41.20
2023-02-23T03:52:08.268Z,40.20
2023-02-23T03:53:08.263Z,40.50
2023-02-23T03:54:08.265Z,42.50
2023-02-23T03:55:08.236Z,42.50
2023-02-23T03:56:08.229Z,43.00
2023-02-23T03:57:08.224Z,44.10
2023-02-23T03:58:08.228Z,44.10
2023-02-23T03:59:08.208Z,43.70
2023-02-23T04:00:08.201Z,44.40
2023-02-23T04:01:08.185Z,40.20
2023-02-23T04:02:08.186Z,39.10
2023-02-23T04:03:08.145Z,41.20
2023-02-23T04:04:08.145Z,42.90
2023-02-23T04:05:08.127Z,41.40
2023-02-23T04:06:08.120Z,42.70
2023-02-23T04:07:08.118Z,46.20
2023-02-23T04:08:08.097Z,49.20
2023-02-23T04:09:08.123Z,51.80
2023-02-23T04:10:08.088Z,50.20
2023-02-23T04:11:08.068Z,50.50
2023-02-23T04:12:08.063Z,50.20
2023-02-23T04:13:08.033Z,46.80
2023-02-23T04:14:08.047Z,47.30
2023-02-23T04:15:08.011Z,48.70
2023-02-23T04:16:08.124Z,48.70
2023-02-23T04:17:07.997Z,48.20
2023-02-23T04:18:07.991Z,47.50
2023-02-23T04:19:07.980Z,45.40
2023-02-23T04:20:07.977Z,47.50
2023-02-23T04:21:08.020Z,45.20
2023-02-23T04:22:07.946Z,46.60
2023-02-23T04:23:07.939Z,48.60
2023-02-23T04:24:07.934Z,47.40
2023-02-23T04:25:07.912Z,44.50
2023-02-23T04:26:07.915Z,42.70
2023-02-23T04:27:07.889Z,42.20
2023-02-23T04:28:07.877Z,43.90
2023-02-23T04:29:07.881Z,45.60
2023-02-23T04:30:07.895Z,44.60
2023-02-23T04:31:07.860Z,46.00
2023-02-23T04:32:07.992Z,44.70
2023-02-23T04:33:07.835Z,44.30
2023-02-23T04:34:07.839Z,44.20
2023-02-23T04:35:07.802Z,46.10
2023-02-23T04:36:07.797Z,46.40
2023-02-23T04:37:07.791Z,43.90
2023-02-23T04:38:07.792Z,44.80
2023-02-23T04:39:07.782Z,44.10
2023-02-23T04:40:07.782Z,40.90
2023-02-23T04:41:07.751Z,42.10
2023-02-23T04:42:07.739Z,45.40
2023-02-23T04:43:07.719Z,45.60
2023-02-23T04:44:07.724Z,44.10
2023-02-23T04:45:07.702Z,42.80
2023-02-23T04:46:07.805Z,42.40
2023-02-23T04:47:07.682Z,41.70
2023-02-23T04:48:07.687Z,42.80
2023-02-23T04:49:07.671Z,44.10
2023-02-23T04:50:07.656Z,43.30
2023-02-23T04:51:07.632Z,41.60
2023-02-23T04:52:07.624Z,41.20
2023-02-23T04:53:07.607Z,40.00
2023-02-23T04:54:07.620Z,38.60
2023-02-23T04:55:07.591Z,37.40
2023-02-23T04:56:07.590Z,37.80
2023-02-23T04:57:07.568Z,38.00
2023-02-23T04:58:07.559Z,40.70
2023-02-23T04:59:07.562Z,40.30
2023-02-23T05:00:07.540Z,39.20
2023-02-23T05:01:07.603Z,36.20
2023-02-23T05:02:07.543Z,41.30
2023-02-23T05:03:07.504Z,42.50
2023-02-23T05:04:07.507Z,43.30
2023-02-23T05:05:07.545Z,44.70
2023-02-23T05:06:07.473Z,44.90
2023-02-23T05:07:07.462Z,46.60
2023-02-23T05:08:07.468Z,46.70
2023-02-23T05:09:07.446Z,48.70
2023-02-23T05:10:07.449Z,46.50
2023-02-23T05:11:07.427Z,46.70
2023-02-23T05:12:07.406Z,46.70
2023-02-23T05:13:07.409Z,46.80
2023-02-23T05:14:07.398Z,46.70
2023-02-23T05:15:07.376Z,46.90
2023-02-23T05:16:07.431Z,45.30
2023-02-23T05:17:08.714Z,48.00
2023-02-23T05:18:07.347Z,51.60
2023-02-23T05:19:07.337Z,53.70
2023-02-23T05:20:07.331Z,54.00
2023-02-23T05:21:07.305Z,53.60
2023-02-23T05:22:07.299Z,53.30
2023-02-23T05:23:07.288Z,50.00
2023-02-23T05:24:07.289Z,50.70
2023-02-23T05:25:07.299Z,50.50
2023-02-23T05:26:07.257Z,50.90
2023-02-23T05:27:07.246Z,49.30
2023-02-23T05:28:07.238Z,49.00
2023-02-23T05:29:07.234Z,44.60
2023-02-23T05:30:07.219Z,43.20
2023-02-23T05:31:07.350Z,43.50
2023-02-23T05:32:07.340Z,43.50
2023-02-23T05:33:07.186Z,44.30
2023-02-23T05:34:07.194Z,52.80
2023-02-23T05:35:07.158Z,54.80
2023-02-23T05:36:07.148Z,49.30
2023-02-23T05:37:07.138Z,56.60
2023-02-23T05:38:07.132Z,60.70
2023-02-23T05:39:07.140Z,59.50
2023-02-23T05:40:07.103Z,54.80
2023-02-23T05:41:07.092Z,60.20
2023-02-23T05:42:07.097Z,53.00
2023-02-23T05:43:07.073Z,51.10
2023-02-23T05:44:07.079Z,51.00
2023-02-23T05:45:07.055Z,50.70
2023-02-23T05:46:07.111Z,52.90
2023-02-23T05:47:07.028Z,51.30
2023-02-23T05:48:07.017Z,49.60
2023-02-23T05:49:07.026Z,50.60
2023-02-23T05:50:07.003Z,50.00
2023-02-23T05:51:06.978Z,48.90
2023-02-23T05:52:06.977Z,51.80
2023-02-23T05:53:06.983Z,50.70
2023-02-23T05:54:06.971Z,52.90
2023-02-23T05:55:06.945Z,48.60
2023-02-23T05:56:06.931Z,46.20
2023-02-23T05:57:06.939Z,50.10
2023-02-23T05:58:06.915Z,45.20
2023-02-23T05:59:06.907Z,47.00
2023-02-23T06:00:06.927Z,47.30
2023-02-23T06:01:06.893Z,46.80
2023-02-23T06:02:06.871Z,44.20
2023-02-23T06:03:06.864Z,43.80
2023-02-23T06:04:06.944Z,45.20
2023-02-23T06:05:06.833Z,45.10
2023-02-23T06:06:06.844Z,46.80
2023-02-23T06:07:06.760Z,47.50
2023-02-23T06:08:06.765Z,56.20
2023-02-23T06:09:06.747Z,52.30
2023-02-23T06:10:06.744Z,55.20
2023-02-23T06:11:06.716Z,52.20
2023-02-23T06:12:06.713Z,49.30
2023-02-23T06:13:06.696Z,49.00
2023-02-23T06:14:06.714Z,48.70
2023-02-23T06:15:06.691Z,51.50
2023-02-23T06:16:06.868Z,48.30
2023-02-23T06:17:06.673Z,47.40
2023-02-23T06:18:06.666Z,47.70
2023-02-23T06:19:06.646Z,48.10
2023-02-23T06:20:06.620Z,47.00
2023-02-23T06:21:06.606Z,46.90
2023-02-23T06:22:06.606Z,48.80
2023-02-23T06:23:06.584Z,51.80
2023-02-23T06:24:06.590Z,47.90
2023-02-23T06:25:06.567Z,50.10
2023-02-23T06:26:06.559Z,48.10
2023-02-23T06:27:06.555Z,52.30
2023-02-23T06:28:06.531Z,47.00
2023-02-23T06:29:06.528Z,46.20
2023-02-23T06:30:06.517Z,52.90
2023-02-23T06:31:06.623Z,46.80
2023-02-23T06:32:06.578Z,50.10
2023-02-23T06:33:06.488Z,52.40
2023-02-23T06:34:06.472Z,53.00
2023-02-23T06:35:06.461Z,53.80
2023-02-23T06:36:06.451Z,57.20
2023-02-23T06:37:09.092Z,52.50
2023-02-23T06:38:06.438Z,57.60
2023-02-23T06:39:06.416Z,56.50
2023-02-23T06:40:06.404Z,55.30
2023-02-23T06:41:06.387Z,55.90
2023-02-23T06:42:06.388Z,61.70
2023-02-23T06:43:06.370Z,60.50
2023-02-23T06:44:06.368Z,61.40
2023-02-23T06:45:06.347Z,57.40
2023-02-23T06:46:06.402Z,56.60
2023-02-23T06:47:06.329Z,54.80
2023-02-23T06:48:06.359Z,59.90
2023-02-23T06:49:06.313Z,65.10
2023-02-23T06:50:06.300Z,59.30
2023-02-23T06:51:06.287Z,61.70
2023-02-23T06:52:06.278Z,62.30
2023-02-23T06:53:06.286Z,56.00
2023-02-23T06:54:06.257Z,54.40
2023-02-23T06:55:06.231Z,53.70
2023-02-23T06:56:06.236Z,55.90
2023-02-23T06:57:06.211Z,53.20
2023-02-23T06:58:06.204Z,51.80
2023-02-23T06:59:06.202Z,50.00
2023-02-23T07:00:06.186Z,52.90
2023-02-23T07:01:06.178Z,51.80
2023-02-23T07:02:06.311Z,52.60
2023-02-23T07:03:06.159Z,50.30
2023-02-23T07:04:06.267Z,54.50
2023-02-23T07:05:06.126Z,54.10
2023-02-23T07:06:06.128Z,54.40
2023-02-23T07:07:06.129Z,58.10
2023-02-23T07:08:06.086Z,57.30
2023-02-23T07:09:06.095Z,56.10
2023-02-23T07:10:06.081Z,52.90
2023-02-23T07:11:06.054Z,52.20
2023-02-23T07:12:06.061Z,52.70
2023-02-23T07:13:06.038Z,53.40
2023-02-23T07:14:07.704Z,51.40
2023-02-23T07:15:06.011Z,53.10
2023-02-23T07:16:06.026Z,52.40
2023-02-23T07:17:05.984Z,52.60
2023-02-23T07:18:05.976Z,54.50
2023-02-23T07:19:05.974Z,51.00
2023-02-23T07:20:05.967Z,49.70
2023-02-23T07:21:05.941Z,48.50
2023-02-23T07:22:05.954Z,50.00
2023-02-23T07:23:05.930Z,50.20
2023-02-23T07:24:05.922Z,53.00
2023-02-23T07:25:05.898Z,52.80
2023-02-23T07:26:05.892Z,50.10
2023-02-23T07:27:05.883Z,56.50
2023-02-23T07:28:05.885Z,59.40
2023-02-23T07:29:05.870Z,56.30
2023-02-23T07:30:05.846Z,55.70
2023-02-23T07:31:06.030Z,51.20
2023-02-23T07:32:06.082Z,50.80
2023-02-23T07:33:05.818Z,54.00
2023-02-23T07:34:05.819Z,54.80
2023-02-23T07:35:05.803Z,56.30
2023-02-23T07:36:05.780Z,57.10
2023-02-23T07:37:05.776Z,59.40
2023-02-23T07:38:05.758Z,56.50
2023-02-23T07:39:05.765Z,58.90
2023-02-23T07:40:05.753Z,60.20
2023-02-23T07:41:05.744Z,58.50
2023-02-23T07:42:05.732Z,58.90
2023-02-23T07:43:05.708Z,59.50
2023-02-23T07:44:05.705Z,56.50
2023-02-23T07:45:05.714Z,60.20
2023-02-23T07:46:05.706Z,59.00
2023-02-23T07:47:05.669Z,59.30
2023-02-23T07:48:05.661Z,60.50
2023-02-23T07:49:05.660Z,58.60
2023-02-23T07:50:05.662Z,61.50
2023-02-23T07:51:05.647Z,61.30
2023-02-23T07:52:05.613Z,60.40
2023-02-23T07:53:05.604Z,60.10
2023-02-23T07:54:05.611Z,60.30
2023-02-23T07:55:05.583Z,58.10
2023-02-23T07:56:05.569Z,55.70
2023-02-23T07:57:05.569Z,54.70
2023-02-23T07:58:05.559Z,53.00
2023-02-23T07:59:05.554Z,55.40
2023-02-23T08:00:05.526Z,56.70
2023-02-23T08:01:05.577Z,57.50
2023-02-23T08:02:05.506Z,57.60
2023-02-23T08:03:05.497Z,58.80
2023-02-23T08:04:05.516Z,60.80
2023-02-23T08:05:05.479Z,60.40
2023-02-23T08:06:05.463Z,59.50
2023-02-23T08:07:05.455Z,58.50
2023-02-23T08:08:05.440Z,58.90
2023-02-23T08:09:05.444Z,58.80
2023-02-23T08:10:05.426Z,56.70
2023-02-23T08:11:05.412Z,57.60
2023-02-23T08:12:05.395Z,57.10
2023-02-23T08:13:05.454Z,56.70
2023-02-23T08:14:05.389Z,57.90
2023-02-23T08:15:05.364Z,59.80
2023-02-23T08:16:05.353Z,59.70
2023-02-23T08:17:05.432Z,60.00
2023-02-23T08:18:05.372Z,59.30
2023-02-23T08:19:05.356Z,59.00
2023-02-23T08:20:05.309Z,58.90
2023-02-23T08:21:05.316Z,57.90
2023-02-23T08:22:06.207Z,59.20
2023-02-23T08:23:05.277Z,58.20
2023-02-23T08:24:05.273Z,56.20
2023-02-23T08:25:05.252Z,56.80
2023-02-23T08:26:05.244Z,58.00
2023-02-23T08:27:05.244Z,57.10
2023-02-23T08:28:05.223Z,53.30
2023-02-23T08:29:05.234Z,55.30
2023-02-23T08:30:05.198Z,53.30
2023-02-23T08:31:05.267Z,52.90
2023-02-23T08:32:05.317Z,52.80
2023-02-23T08:33:05.177Z,52.40
2023-02-23T08:34:05.167Z,51.80
2023-02-23T08:35:05.148Z,50.40
2023-02-23T08:36:05.139Z,50.20
2023-02-23T08:37:05.130Z,50.00
2023-02-23T08:38:05.126Z,49.30
2023-02-23T08:39:05.120Z,50.80
2023-02-23T08:40:05.087Z,49.80
2023-02-23T08:41:05.084Z,50.00
2023-02-23T08:42:05.068Z,49.60
2023-02-23T08:43:05.072Z,50.10
2023-02-23T08:44:05.389Z,49.10
2023-02-23T08:45:06.329Z,49.60
2023-02-23T08:46:05.048Z,50.50
2023-02-23T08:47:05.022Z,50.30
2023-02-23T08:48:05.001Z,51.10
2023-02-23T08:49:05.013Z,50.70
2023-02-23T08:50:04.987Z,51.00
2023-02-23T08:51:04.972Z,49.90
2023-02-23T08:52:04.962Z,51.30
2023-02-23T08:53:04.953Z,49.70
2023-02-23T08:54:04.951Z,48.30
2023-02-23T08:55:04.950Z,48.50
2023-02-23T08:56:04.919Z,47.70
2023-02-23T08:57:04.908Z,46.20
2023-02-23T08:58:04.952Z,45.10
2023-02-23T08:59:04.896Z,47.60
2023-02-23T09:00:04.915Z,46.30
2023-02-23T09:01:04.923Z,45.70
2023-02-23T09:02:05.163Z,46.20
2023-02-23T09:03:04.848Z,45.90
2023-02-23T09:04:04.839Z,45.70
2023-02-23T09:05:04.896Z,44.60
2023-02-23T09:06:04.918Z,45.50
2023-02-23T09:07:04.799Z,48.30
2023-02-23T09:08:04.775Z,46.30
2023-02-23T09:09:04.796Z,45.80
2023-02-23T09:10:04.788Z,45.90
2023-02-23T09:11:04.896Z,43.40
2023-02-23T09:12:04.732Z,41.60
2023-02-23T09:13:04.729Z,42.00
2023-02-23T09:14:04.730Z,41.20
2023-02-23T09:15:04.710Z,42.30
2023-02-23T09:16:04.726Z,42.20
2023-02-23T09:17:04.686Z,41.10
2023-02-23T09:18:04.671Z,39.60
2023-02-23T09:19:04.682Z,39.50
2023-02-23T09:20:04.658Z,40.40
2023-02-23T09:21:04.640Z,39.10
2023-02-23T09:22:04.628Z,39.90
2023-02-23T09:23:04.622Z,38.50
2023-02-23T09:24:04.625Z,38.90
2023-02-23T09:25:04.607Z,38.90
2023-02-23T09:26:04.939Z,39.40
2023-02-23T09:27:04.580Z,39.20
2023-02-23T09:28:04.572Z,38.00
2023-02-23T09:29:04.572Z,38.80
2023-02-23T09:30:04.568Z,38.60
2023-02-23T09:31:04.753Z,39.90
2023-02-23T09:32:04.695Z,38.30
2023-02-23T09:33:04.512Z,38.30
2023-02-23T09:34:04.518Z,38.70
2023-02-23T09:35:04.492Z,38.90
2023-02-23T09:36:04.476Z,39.90
2023-02-23T09:37:04.528Z,38.50
2023-02-23T09:38:04.450Z,38.50
2023-02-23T09:39:04.469Z,36.30
2023-02-23T09:40:04.430Z,37.30
2023-02-23T09:41:04.431Z,36.60
2023-02-23T09:42:04.424Z,34.50
2023-02-23T09:43:04.421Z,34.70
2023-02-23T09:44:04.398Z,33.30
2023-02-23T09:45:04.391Z,33.10
2023-02-23T09:46:04.421Z,34.00
2023-02-23T09:47:04.376Z,33.90
2023-02-23T09:48:04.351Z,33.30
2023-02-23T09:49:04.378Z,32.70
2023-02-23T09:50:04.431Z,30.30
2023-02-23T09:51:04.318Z,32.00
2023-02-23T09:52:04.302Z,30.10
2023-02-23T09:53:04.868Z,29.90
2023-02-23T09:54:04.289Z,30.80
2023-02-23T09:55:04.281Z,28.60
2023-02-23T09:56:04.259Z,29.40
2023-02-23T09:57:04.253Z,29.80
2023-02-23T09:58:04.243Z,27.80
2023-02-23T09:59:04.250Z,28.70
2023-02-23T10:00:04.219Z,28.10
2023-02-23T10:01:04.216Z,29.50
2023-02-23T10:02:04.197Z,30.20
2023-02-23T10:03:04.193Z,30.40
2023-02-23T10:04:04.196Z,29.80
2023-02-23T10:05:04.188Z,28.90
2023-02-23T10:06:04.168Z,29.00
2023-02-23T10:07:04.157Z,30.40
2023-02-23T10:08:04.152Z,29.80
2023-02-23T10:09:04.148Z,30.10
2023-02-23T10:10:04.150Z,29.70
2023-02-23T10:11:04.108Z,29.50
2023-02-23T10:12:04.087Z,28.70
2023-02-23T10:13:04.082Z,29.50
2023-02-23T10:14:04.082Z,30.60
2023-02-23T10:15:04.075Z,30.10
2023-02-23T10:16:04.129Z,29.40
2023-02-23T10:17:04.089Z,29.60
2023-02-23T10:18:04.034Z,29.40
2023-02-23T10:19:04.040Z,30.60
2023-02-23T10:20:04.000Z,31.10
2023-02-23T10:21:04.017Z,30.30
2023-02-23T10:22:03.984Z,30.40
2023-02-23T10:23:03.975Z,31.30
2023-02-23T10:24:03.975Z,32.10
2023-02-23T10:25:03.951Z,33.90
2023-02-23T10:26:03.931Z,33.90
2023-02-23T10:27:03.932Z,34.30
2023-02-23T10:28:03.916Z,33.30
2023-02-23T10:29:03.914Z,35.10
2023-02-23T10:30:03.887Z,33.80
2023-02-23T10:31:03.982Z,34.70
2023-02-23T10:32:03.961Z,33.60
2023-02-23T10:33:03.887Z,32.30
2023-02-23T10:34:03.859Z,33.90
2023-02-23T10:35:03.839Z,34.90
2023-02-23T10:36:13.302Z,33.20
2023-02-23T10:37:03.820Z,32.20
2023-02-23T10:38:03.795Z,32.40
2023-02-23T10:39:03.804Z,32.20
2023-02-23T10:40:03.780Z,31.80
2023-02-23T10:41:03.772Z,31.10
2023-02-23T10:42:03.759Z,32.10
2023-02-23T10:43:03.752Z,33.30
2023-02-23T10:44:15.950Z,34.50
2023-02-23T10:45:03.740Z,32.60
2023-02-23T10:46:03.753Z,33.20
2023-02-23T10:47:03.703Z,31.80
2023-02-23T10:48:03.703Z,31.30
2023-02-23T10:49:03.695Z,32.60
2023-02-23T10:50:03.669Z,31.30
2023-02-23T10:51:03.664Z,32.60
2023-02-23T10:52:03.647Z,30.80
2023-02-23T10:53:03.639Z,30.40
2023-02-23T10:54:08.061Z,30.10
2023-02-23T10:55:03.671Z,31.30
2023-02-23T10:56:03.602Z,30.40
2023-02-23T10:57:03.597Z,30.60
2023-02-23T10:58:03.581Z,30.00
2023-02-23T10:59:03.590Z,29.70
2023-02-23T11:00:03.572Z,29.80
2023-02-23T11:01:03.555Z,29.30
2023-02-23T11:02:03.580Z,29.30
2023-02-23T11:03:03.535Z,30.20
2023-02-23T11:04:06.246Z,29.10
2023-02-23T11:05:03.563Z,28.10
2023-02-23T11:06:03.494Z,25.50
2023-02-23T11:07:03.483Z,26.40
2023-02-23T11:08:03.477Z,26.30
2023-02-23T11:09:03.471Z,26.60
2023-02-23T11:10:03.454Z,27.30
2023-02-23T11:11:03.442Z,26.70
2023-02-23T11:12:03.426Z,27.10
2023-02-23T11:13:03.457Z,25.80
2023-02-23T11:14:03.423Z,25.90
2023-02-23T11:15:03.405Z,26.80
2023-02-23T11:16:03.394Z,27.30
2023-02-23T11:17:03.376Z,27.70
2023-02-23T11:18:03.353Z,28.20
2023-02-23T11:19:03.381Z,27.60
2023-02-23T11:20:03.341Z,28.60
2023-02-23T11:21:03.332Z,27.00
2023-02-23T11:22:03.315Z,28.00
2023-02-23T11:23:13.956Z,29.30
2023-02-23T11:24:03.307Z,27.50
2023-02-23T11:25:03.283Z,27.70
2023-02-23T11:26:03.270Z,27.90
2023-02-23T11:27:03.266Z,28.10
2023-02-23T11:28:03.251Z,28.70
2023-02-23T11:29:03.249Z,29.00
2023-02-23T11:30:03.235Z,30.10
2023-02-23T11:31:03.397Z,31.00
2023-02-23T11:32:06.789Z,29.80
2023-02-23T11:33:03.204Z,29.90
2023-02-23T11:34:03.200Z,30.00
2023-02-23T11:35:03.178Z,32.20
2023-02-23T11:36:03.164Z,31.20
2023-02-23T11:37:03.159Z,30.00
2023-02-23T11:38:05.423Z,29.40
2023-02-23T11:39:03.152Z,28.20
2023-02-23T11:40:03.122Z,29.30
2023-02-23T11:41:03.118Z,28.90
2023-02-23T11:42:03.097Z,29.60
2023-02-23T11:43:03.093Z,28.10
2023-02-23T11:44:05.794Z,29.20
2023-02-23T11:45:03.077Z,28.70
2023-02-23T11:46:03.093Z,28.70
2023-02-23T11:47:03.106Z,30.20
2023-02-23T11:48:03.028Z,29.60
2023-02-23T11:49:03.022Z,30.10
2023-02-23T11:50:03.038Z,28.10
2023-02-23T11:51:03.008Z,29.30
2023-02-23T11:52:02.990Z,28.40
2023-02-23T11:53:02.969Z,28.30
2023-02-23T11:54:05.310Z,28.20
2023-02-23T11:55:02.962Z,28.20
2023-02-23T11:56:02.948Z,27.40
2023-02-23T11:57:03.002Z,27.70
2023-02-23T11:58:02.925Z,26.20
2023-02-23T11:59:02.912Z,25.30
2023-02-23T12:00:02.925Z,25.50
2023-02-23T12:01:02.890Z,25.90
2023-02-23T12:02:02.887Z,26.00
2023-02-23T12:03:02.925Z,26.50
2023-02-23T12:04:02.858Z,26.60
2023-02-23T12:05:02.964Z,24.30
2023-02-23T12:06:02.836Z,24.70
2023-02-23T12:07:02.821Z,26.20
2023-02-23T12:08:02.869Z,26.60
2023-02-23T12:09:02.804Z,27.70
2023-02-23T12:10:02.829Z,27.30
2023-02-23T12:11:02.782Z,25.80
2023-02-23T12:12:02.779Z,27.80
2023-02-23T12:13:02.785Z,28.70
2023-02-23T12:14:02.754Z,28.60
2023-02-23T12:15:02.748Z,27.90
2023-02-23T12:16:02.819Z,27.50
2023-02-23T12:17:04.295Z,29.50
2023-02-23T12:18:02.710Z,29.10
2023-02-23T12:19:02.702Z,28.60
2023-02-23T12:20:02.695Z,28.40
2023-02-23T12:21:02.673Z,27.50
2023-02-23T12:22:02.659Z,28.20
2023-02-23T12:23:02.647Z,28.10
2023-02-23T12:24:02.655Z,27.90
2023-02-23T12:25:02.644Z,27.90
2023-02-23T12:26:02.620Z,29.20
2023-02-23T12:27:02.602Z,29.30
2023-02-23T12:28:13.672Z,28.60
2023-02-23T12:29:02.583Z,28.10
2023-02-23T12:30:02.601Z,27.80
2023-02-23T12:31:02.594Z,29.20
2023-02-23T12:32:02.714Z,30.70
2023-02-23T12:33:02.541Z,30.80
2023-02-23T12:34:02.531Z,29.80
2023-02-23T12:35:02.532Z,30.30
2023-02-23T12:36:02.507Z,29.30
2023-02-23T12:37:02.501Z,28.20
2023-02-23T12:38:02.488Z,26.50
2023-02-23T12:39:02.464Z,28.30
2023-02-23T12:40:02.480Z,25.20
2023-02-23T12:41:02.445Z,26.10
2023-02-23T12:42:02.440Z,25.50
2023-02-23T12:43:02.450Z,26.90
2023-02-23T12:44:02.432Z,27.80
2023-02-23T12:45:02.412Z,26.60
2023-02-23T12:46:02.500Z,25.20
2023-02-23T12:47:02.382Z,26.00
2023-02-23T12:48:02.374Z,27.20
2023-02-23T12:49:02.371Z,28.30
2023-02-23T12:50:02.365Z,26.30
2023-02-23T12:51:02.433Z,27.20
2023-02-23T12:52:02.343Z,25.00